Time;durP1;ratioP1;P1;durP2;ratioP2;P2;SDS_P1;SDS_P2;PMS_P1;PMS_P2;Temp;Humidity;BMP_temperature;BMP_pressure;BME280_temperature;BME280_humidity;BME280_pressure;Samples;Min_cycle;Max_cycle;Signal;HPM_P1;HPM_P2
2022/11/15 00:00:09;;;;;;;0.10;0.10;;;;;;;7.65;100.00;96098.38;4982873;28;20042;-77
2022/11/15 00:03:15;;;;;;;0.10;0.10;;;;;;;7.67;100.00;96090.94;4980784;28;20283;-78
2022/11/15 00:06:19;;;;;;;0.10;0.10;;;;;;;7.69;100.00;96092.31;4983001;28;20044;-76
2022/11/15 00:09:24;;;;;;;0.10;0.10;;;;;;;7.72;100.00;96094.50;4981805;28;20077;-76
2022/11/15 00:12:28;;;;;;;0.10;0.10;;;;;;;7.82;100.00;96088.56;4980142;28;20057;-76
2022/11/15 00:15:40;;;;;;;0.10;0.10;;;;;;;7.80;100.00;96085.31;4980209;28;20111;-75
2022/11/15 00:18:46;;;;;;;0.10;0.10;;;;;;;7.77;100.00;96081.25;4982925;28;20041;-76
2022/11/15 00:21:51;;;;;;;0.10;0.10;;;;;;;7.75;100.00;96088.69;4982007;28;20522;-78
2022/11/15 00:24:55;;;;;;;0.10;0.10;;;;;;;7.80;100.00;96090.66;4980464;28;20305;-77
2022/11/15 00:28:00;;;;;;;0.10;0.10;;;;;;;7.83;100.00;96085.66;4979250;28;20045;-77
2022/11/15 00:31:08;;;;;;;0.10;0.10;;;;;;;7.89;100.00;96086.53;4983003;28;20045;-79
2022/11/15 00:34:13;;;;;;;0.10;0.10;;;;;;;7.82;100.00;96075.22;4962408;28;20120;-76
2022/11/15 00:37:17;;;;;;;0.10;0.10;;;;;;;7.85;100.00;96084.59;4982236;28;20470;-78
2022/11/15 00:40:21;;;;;;;0.10;0.10;;;;;;;7.85;100.00;96081.94;4978869;28;20034;-79
2022/11/15 00:43:26;;;;;;;0.10;0.10;;;;;;;7.90;100.00;96071.38;4977463;28;20064;-78
2022/11/15 00:46:31;;;;;;;0.10;0.10;;;;;;;7.94;100.00;96075.19;4978418;28;20081;-78
2022/11/15 00:49:35;;;;;;;0.10;0.10;;;;;;;7.91;100.00;96065.00;4967029;28;20116;-79
2022/11/15 00:52:39;;;;;;;0.10;0.10;;;;;;;7.95;100.00;96068.81;4981299;28;20034;-76
2022/11/15 00:55:44;;;;;;;0.10;0.10;;;;;;;7.97;100.00;96066.69;4980460;28;20100;-76
2022/11/15 00:58:48;;;;;;;0.10;0.10;;;;;;;7.89;100.00;96072.41;4979819;28;20547;-79
2022/11/15 01:01:52;;;;;;;0.10;0.10;;;;;;;7.85;100.00;96077.41;4984093;28;20222;-76
2022/11/15 01:04:57;;;;;;;0.10;0.10;;;;;;;7.84;100.00;96081.13;4980996;28;20538;-78
2022/11/15 01:08:01;;;;;;;0.10;0.10;;;;;;;7.83;100.00;96085.66;4967802;28;20050;-78
2022/11/15 01:11:09;;;;;;;0.10;0.10;;;;;;;7.85;100.00;96080.06;4973170;28;20053;-79
2022/11/15 01:14:14;;;;;;;0.10;0.10;;;;;;;7.85;100.00;96082.72;4976694;28;20690;-77
2022/11/15 01:17:18;;;;;;;0.10;0.10;;;;;;;7.80;100.00;96075.47;4979536;28;20824;-76
2022/11/15 01:20:22;;;;;;;0.10;0.10;;;;;;;7.81;100.00;96079.75;4980433;28;20045;-79
2022/11/15 01:23:27;;;;;;;0.10;0.10;;;;;;;7.85;100.00;96072.06;4977918;28;20042;-78
2022/11/15 01:26:31;;;;;;;0.10;0.10;;;;;;;7.86;100.00;96070.22;4977976;28;20245;-78
2022/11/15 01:29:36;;;;;;;0.10;0.10;;;;;;;7.76;100.00;96058.34;4979542;28;20505;-77
2022/11/15 01:32:40;;;;;;;0.10;0.10;;;;;;;7.79;100.00;96068.53;4976922;28;20046;-79
2022/11/15 01:35:44;;;;;;;0.10;0.10;;;;;;;7.80;100.00;96061.34;4980462;28;20045;-79
2022/11/15 01:38:54;;;;;;;0.10;0.10;;;;;;;7.79;100.00;96062.41;4977726;28;21530;-77
2022/11/15 01:41:59;;;;;;;0.10;0.10;;;;;;;7.77;100.00;96061.81;4981692;28;20324;-76
2022/11/15 01:45:04;;;;;;;0.10;0.10;;;;;;;7.83;100.00;96066.19;4979285;28;20665;-79
2022/11/15 01:48:10;;;;;;;0.10;0.10;;;;;;;7.83;100.00;96056.34;4981820;28;20559;-78
2022/11/15 01:51:19;;;;;;;0.10;0.10;;;;;;;7.88;100.00;96062.81;4982026;28;20045;-77
2022/11/15 01:54:24;;;;;;;0.10;0.10;;;;;;;7.84;100.00;96051.81;4978566;28;20619;-78
2022/11/15 01:57:29;;;;;;;0.10;0.10;;;;;;;7.80;100.00;96038.19;4978117;28;20069;-76
2022/11/15 02:00:34;;;;;;;0.10;0.10;;;;;;;7.73;100.00;96044.72;4978701;28;20530;-76
2022/11/15 02:03:50;;;;;;;0.10;0.10;;;;;;;7.72;100.00;96051.91;4975052;28;20116;-78
2022/11/15 02:06:55;;;;;;;0.10;0.10;;;;;;;7.72;100.00;96035.91;4977011;28;20132;-80
2022/11/15 02:10:07;;;;;;;0.15;0.15;;;;;;;7.80;100.00;96040.03;4981166;28;20226;-79
2022/11/15 02:13:14;;;;;;;0.10;0.10;;;;;;;7.85;100.00;96036.63;4978501;28;20522;-76
2022/11/15 02:16:43;;;;;;;0.10;0.10;;;;;;;7.85;100.00;96034.78;4980539;28;20109;-79
2022/11/15 02:19:53;;;;;;;0.10;0.10;;;;;;;7.99;100.00;96038.75;4976625;28;20564;-78
2022/11/15 02:23:15;;;;;;;0.10;0.10;;;;;;;7.99;100.00;96041.41;4976335;28;20047;-75
2022/11/15 02:27:16;;;;;;;0.10;0.10;;;;;;;8.05;100.00;96029.78;4978984;28;20049;-76
2022/11/15 02:30:47;;;;;;;0.10;0.10;;;;;;;8.08;100.00;96025.81;4978170;28;20046;-77
2022/11/15 02:34:09;;;;;;;0.10;0.10;;;;;;;8.17;100.00;96020.91;4976971;28;20472;-76
2022/11/15 02:37:30;;;;;;;0.10;0.10;;;;;;;8.13;100.00;96025.91;4978851;28;20158;-75
2022/11/15 02:40:47;;;;;;;0.10;0.10;;;;;;;8.23;100.00;96025.25;4978117;28;20177;-78
2022/11/15 02:44:22;;;;;;;0.10;0.10;;;;;;;8.29;100.00;96024.28;4974196;28;20069;-77
2022/11/15 02:47:31;;;;;;;0.10;0.10;;;;;;;8.25;100.00;96021.31;4977376;28;20042;-77
2022/11/15 02:50:36;;;;;;;0.10;0.10;;;;;;;8.26;100.00;96014.13;4976783;28;20065;-78
2022/11/15 02:53:40;;;;;;;0.10;0.10;;;;;;;8.28;100.00;96009.34;4975103;28;20066;-78
2022/11/15 02:56:46;;;;;;;0.15;0.15;;;;;;;8.28;100.00;96004.03;4977016;28;20081;-76
2022/11/15 03:00:11;;;;;;;0.10;0.10;;;;;;;8.28;100.00;95998.69;4977576;28;20418;-76
2022/11/15 03:03:30;;;;;;;0.10;0.10;;;;;;;8.29;100.00;96002.97;4976882;28;20054;-78
2022/11/15 03:06:43;;;;;;;0.10;0.10;;;;;;;8.32;100.00;95997.94;4976988;28;20808;-79
2022/11/15 03:10:05;;;;;;;0.10;0.10;;;;;;;8.41;100.00;95994.91;4981204;28;20434;-77
2022/11/15 03:13:40;;;;;;;0.10;0.10;;;;;;;8.41;100.00;95985.06;4976665;28;20038;-77
2022/11/15 03:16:48;;;;;;;0.10;0.10;;;;;;;8.44;100.00;95987.22;4976425;28;20515;-79
2022/11/15 03:19:58;;;;;;;0.10;0.10;;;;;;;8.46;100.00;95987.75;4975716;28;20042;-79
2022/11/15 03:23:09;;;;;;;0.10;0.10;;;;;;;8.51;100.00;95989.72;4978998;28;20034;-76
2022/11/15 03:26:18;;;;;;;0.10;0.10;;;;;;;8.48;100.00;95991.00;4980202;28;20053;-76
2022/11/15 03:29:29;;;;;;;0.10;0.10;;;;;;;8.46;100.00;95982.44;4977952;28;20049;-78
2022/11/15 03:32:38;;;;;;;0.10;0.10;;;;;;;8.47;100.00;95981.38;4976591;28;20041;-75
2022/11/15 03:35:45;;;;;;;0.10;0.10;;;;;;;8.46;100.00;95982.44;4978361;28;20235;-77
2022/11/15 03:38:57;;;;;;;0.10;0.10;;;;;;;8.41;100.00;95979.72;4976411;28;20573;-78
2022/11/15 03:42:20;;;;;;;0.10;0.10;;;;;;;8.47;100.00;95983.25;4977915;28;20069;-78
2022/11/15 03:45:41;;;;;;;0.10;0.10;;;;;;;8.50;100.00;95983.56;4979984;28;20038;-78
2022/11/15 03:48:54;;;;;;;0.10;0.10;;;;;;;8.53;100.00;95983.06;4976258;28;20162;-77
2022/11/15 03:52:00;;;;;;;0.15;0.15;;;;;;;8.48;100.00;95985.69;4976511;28;20407;-77
2022/11/15 03:55:08;;;;;;;0.10;0.10;;;;;;;8.51;100.00;95979.84;4978398;28;20479;-80
2022/11/15 03:58:12;;;;;;;0.10;0.10;;;;;;;8.43;100.00;95992.78;4977202;28;20519;-81
2022/11/15 04:01:16;;;;;;;0.10;0.10;;;;;;;8.52;100.00;95986.78;4977452;28;20035;-75
2022/11/15 04:04:20;;;;;;;0.10;0.10;;;;;;;8.48;100.00;95993.69;4979014;28;20577;-76
2022/11/15 04:07:25;;;;;;;0.20;0.10;;;;;;;8.44;100.00;95997.88;4977843;28;20053;-77
2022/11/15 04:10:30;;;;;;;0.10;0.10;;;;;;;8.41;100.00;95990.38;4978481;28;20128;-77
2022/11/15 04:13:34;;;;;;;0.10;0.10;;;;;;;8.44;100.00;95987.22;4978856;28;20081;-76
2022/11/15 04:16:39;;;;;;;0.10;0.10;;;;;;;8.47;100.00;95996.56;4978904;28;20074;-78
2022/11/15 04:26:46;;;;;;;0.10;0.10;;;;;;;8.35;100.00;95988.69;4978658;28;20056;-77
2022/11/15 04:29:50;;;;;;;0.10;0.10;;;;;;;8.27;100.00;95973.09;4979943;28;20069;-77
2022/11/15 04:32:54;;;;;;;0.10;0.10;;;;;;;8.28;100.00;95969.38;4981647;28;20042;-78
2022/11/15 04:39:22;;;;;;;0.10;0.10;;;;;;;8.30;100.00;95969.91;4981704;28;20054;-78
2022/11/15 04:42:26;;;;;;;0.10;0.10;;;;;;;8.28;100.00;95980.84;4980146;28;20106;-78
2022/11/15 04:45:31;;;;;;;0.10;0.10;;;;;;;8.33;100.00;95969.44;4981087;28;20053;-76
2022/11/15 04:48:35;;;;;;;0.10;0.10;;;;;;;8.41;100.00;95965.59;4979531;28;20078;-77
2022/11/15 04:51:40;;;;;;;0.10;0.10;;;;;;;8.35;100.00;95973.50;4979458;28;20049;-78
2022/11/15 04:54:44;;;;;;;0.10;0.10;;;;;;;8.37;100.00;95963.38;4979778;28;20042;-78
2022/11/15 04:57:57;;;;;;;0.10;0.10;;;;;;;8.43;100.00;95964.28;4981436;28;20479;-76
2022/11/15 05:01:09;;;;;;;0.10;0.10;;;;;;;8.43;100.00;95963.47;4981069;28;20045;-77
2022/11/15 05:04:19;;;;;;;0.10;0.10;;;;;;;8.42;100.00;95964.53;4980957;28;20061;-78
2022/11/15 05:07:23;;;;;;;0.10;0.10;;;;;;;8.44;100.00;95952.56;4980962;28;20406;-77
2022/11/15 05:10:28;;;;;;;0.10;0.10;;;;;;;8.44;100.00;95962.41;4982140;28;20046;-77
2022/11/15 05:13:32;;;;;;;0.10;0.10;;;;;;;8.44;100.00;95960.53;4980591;28;20061;-79
2022/11/15 05:16:37;;;;;;;0.10;0.10;;;;;;;8.47;100.00;95967.25;4981238;28;20215;-75
2022/11/15 05:19:41;;;;;;;0.10;0.10;;;;;;;8.48;100.00;95969.69;4982974;28;20554;-78
2022/11/15 05:22:45;;;;;;;0.10;0.10;;;;;;;8.48;100.00;95977.69;4978313;28;20065;-75
2022/11/15 05:25:50;;;;;;;0.10;0.10;;;;;;;8.45;100.00;95970.16;4980334;28;20049;-78
2022/11/15 05:28:58;;;;;;;0.10;0.10;;;;;;;8.47;100.00;95970.72;4982199;28;21277;-78
2022/11/15 05:32:05;;;;;;;0.10;0.10;;;;;;;8.46;100.00;95971.75;4979584;28;20038;-77
2022/11/15 05:35:18;;;;;;;0.10;0.10;;;;;;;8.38;100.00;95970.31;4980397;28;20074;-79
2022/11/15 05:38:23;;;;;;;0.10;0.10;;;;;;;8.35;100.00;95965.50;4983185;28;20137;-79
2022/11/15 05:41:35;;;;;;;0.10;0.10;;;;;;;8.29;100.00;95954.97;4980216;28;20820;-75
2022/11/15 05:44:44;;;;;;;0.10;0.10;;;;;;;8.16;100.00;95965.97;4979152;28;20034;-78
2022/11/15 05:47:50;;;;;;;0.10;0.10;;;;;;;8.00;100.00;95963.09;4980116;28;20040;-77
2022/11/15 05:50:55;;;;;;;0.10;0.10;;;;;;;7.87;100.00;95951.97;4982096;28;20088;-76
2022/11/15 05:54:01;;;;;;;0.10;0.10;;;;;;;7.79;100.00;95966.50;4978877;28;20419;-76
2022/11/15 05:57:06;;;;;;;0.10;0.10;;;;;;;7.69;100.00;95963.66;4980689;28;20101;-76
2022/11/15 06:00:11;;;;;;;0.10;0.10;;;;;;;7.61;100.00;95958.75;4979252;28;20065;-75
2022/11/15 06:03:15;;;;;;;0.10;0.10;;;;;;;7.59;100.00;95964.31;4982495;28;20470;-77
2022/11/15 06:06:20;;;;;;;0.10;0.10;;;;;;;7.53;100.00;95963.41;4979305;28;20067;-77
2022/11/15 06:09:24;;;;;;;0.10;0.10;;;;;;;7.49;100.00;95969.47;4978779;28;20054;-78
2022/11/15 06:12:29;;;;;;;0.10;0.10;;;;;;;7.43;100.00;95963.25;4979737;28;20044;-75
2022/11/15 06:15:36;;;;;;;0.10;0.10;;;;;;;7.44;100.00;95964.06;4980108;28;20423;-79
2022/11/15 06:18:41;;;;;;;0.10;0.10;;;;;;;7.41;100.00;95970.69;4977816;28;20220;-76
2022/11/15 06:21:45;;;;;;;0.10;0.10;;;;;;;7.42;100.00;95964.31;4978399;28;20044;-79
2022/11/15 06:24:49;;;;;;;0.10;0.10;;;;;;;7.41;100.00;95969.88;4977790;28;20066;-78
2022/11/15 06:27:55;;;;;;;0.10;0.10;;;;;;;7.40;100.00;95979.72;4978465;28;20048;-79
2022/11/15 06:31:05;;;;;;;0.10;0.10;;;;;;;7.35;100.00;95981.47;4978526;28;20033;-78
2022/11/15 06:34:09;;;;;;;0.10;0.10;;;;;;;7.31;100.00;95975.00;4978908;28;20069;-78
2022/11/15 06:37:14;;;;;;;0.10;0.10;;;;;;;7.22;100.00;95972.72;4978401;28;20152;-77
2022/11/15 06:40:18;;;;;;;0.10;0.10;;;;;;;7.25;100.00;95990.09;4968826;28;20093;-78
2022/11/15 06:43:23;;;;;;;0.10;0.10;;;;;;;7.23;100.00;95986.84;4976732;28;20050;-78
2022/11/15 06:46:27;;;;;;;0.10;0.10;;;;;;;7.23;100.00;95986.84;4981268;28;20053;-79
2022/11/15 06:49:31;;;;;;;0.10;0.10;;;;;;;7.19;100.00;95977.72;4979130;28;20584;-77
2022/11/15 06:52:35;;;;;;;0.10;0.10;;;;;;;7.20;100.00;95993.47;4979609;28;20241;-77
2022/11/15 06:55:40;;;;;;;0.10;0.10;;;;;;;7.32;100.00;96001.41;4977443;28;20030;-77
2022/11/15 06:58:44;;;;;;;0.10;0.10;;;;;;;7.29;100.00;95993.88;4977753;28;20141;-78
2022/11/15 07:01:49;;;;;;;0.10;0.10;;;;;;;7.44;100.00;95999.47;4977481;28;20482;-75
2022/11/15 07:04:53;;;;;;;0.10;0.10;;;;;;;7.50;100.00;96003.84;4975105;28;20641;-78
2022/11/15 07:07:59;;;;;;;0.10;0.10;;;;;;;7.68;100.00;96004.66;4976681;28;20038;-78
2022/11/15 07:11:06;;;;;;;0.10;0.10;;;;;;;7.78;100.00;96010.16;4978444;28;20101;-78
2022/11/15 07:14:10;;;;;;;0.10;0.10;;;;;;;7.84;100.00;96003.88;4979063;28;20038;-79
2022/11/15 07:17:14;;;;;;;0.10;0.10;;;;;;;7.81;100.00;96007.84;4977706;28;20565;-77
2022/11/15 07:20:19;;;;;;;0.10;0.10;;;;;;;7.89;100.00;96008.47;4983495;28;20046;-77
2022/11/15 07:23:23;;;;;;;0.10;0.10;;;;;;;7.91;100.00;96009.84;4981959;28;20068;-79
2022/11/15 07:26:30;;;;;;;0.10;0.10;;;;;;;7.98;100.00;95997.16;4980045;28;20046;-78
2022/11/15 07:29:34;;;;;;;0.10;0.10;;;;;;;7.96;100.00;95983.28;4980555;28;20124;-76
2022/11/15 07:32:39;;;;;;;0.10;0.10;;;;;;;8.02;100.00;95998.31;4978055;28;20112;-78
2022/11/15 07:35:46;;;;;;;0.10;0.10;;;;;;;8.04;100.00;95988.22;4981111;28;20427;-78
2022/11/15 07:38:50;;;;;;;0.10;0.10;;;;;;;8.08;100.00;95977.84;4976286;28;20037;-79
2022/11/15 07:42:52;;;;;;;0.10;0.10;;;;;;;8.13;100.00;95987.81;4980891;28;20050;-78
2022/11/15 07:45:20;;;;;;;0.10;0.10;;;;;;;8.16;100.00;95976.63;4980206;28;20757;-80
2022/11/15 07:48:25;;;;;;;0.15;0.15;;;;;;;8.24;100.00;95981.56;4978157;28;20070;-80
2022/11/15 07:51:29;;;;;;;0.10;0.10;;;;;;;8.23;100.00;95983.41;4979461;28;20309;-77
2022/11/15 07:54:34;;;;;;;0.10;0.10;;;;;;;8.21;100.00;95982.06;4978533;28;20548;-77
2022/11/15 07:57:38;;;;;;;0.10;0.10;;;;;;;8.11;100.00;95980.06;4976321;28;20112;-81
2022/11/15 08:00:43;;;;;;;0.10;0.10;;;;;;;8.14;100.00;95981.41;4977999;28;20373;-77
2022/11/15 08:03:47;;;;;;;0.10;0.10;;;;;;;8.23;100.00;95991.41;4982121;28;20054;-81
2022/11/15 08:06:52;;;;;;;0.10;0.10;;;;;;;8.28;100.00;95990.69;4985383;28;20089;-78
2022/11/15 08:09:57;;;;;;;0.10;0.10;;;;;;;8.34;100.00;95982.53;4981925;28;20542;-76
2022/11/15 08:13:07;;;;;;;0.10;0.10;;;;;;;8.43;100.00;95974.13;4979421;28;20299;-78
2022/11/15 08:16:11;;;;;;;0.10;0.10;;;;;;;8.46;100.00;95966.44;4970576;28;20100;-78
2022/11/15 08:19:16;;;;;;;0.10;0.10;;;;;;;8.50;100.00;95978.22;4982453;28;20034;-78
2022/11/15 08:22:20;;;;;;;0.15;0.15;;;;;;;8.53;100.00;95971.59;4981367;28;20039;-79
2022/11/15 08:25:27;;;;;;;0.10;0.10;;;;;;;8.53;100.00;95968.94;4983121;28;20171;-79
2022/11/15 08:28:32;;;;;;;0.10;0.10;;;;;;;8.81;100.00;95971.44;4982840;28;20045;-78
2022/11/15 08:31:36;;;;;;;0.10;0.10;;;;;;;8.84;100.00;95968.25;4979811;28;20034;-77
2022/11/15 08:34:41;;;;;;;0.10;0.10;;;;;;;8.87;100.00;95965.09;4982849;28;20077;-79
2022/11/15 08:37:45;;;;;;;0.13;0.13;;;;;;;8.84;100.00;95970.91;4981821;28;20049;-78
2022/11/15 08:41:01;;;;;;;0.10;0.10;;;;;;;8.82;100.00;95969.56;4983545;28;20596;-77
2022/11/15 08:44:05;;;;;;;0.10;0.10;;;;;;;8.81;100.00;95966.09;4981788;28;20065;-79
2022/11/15 08:47:12;;;;;;;0.10;0.10;;;;;;;8.94;100.00;95967.56;4982482;28;20045;-80
2022/11/15 08:50:16;;;;;;;0.10;0.10;;;;;;;8.97;100.00;95956.41;4983533;28;20197;-81
2022/11/15 08:53:21;;;;;;;0.10;0.10;;;;;;;8.97;100.00;95950.25;4979909;28;20126;-78
2022/11/15 08:56:26;;;;;;;0.10;0.10;;;;;;;8.97;100.00;95947.59;4984903;28;20120;-75
2022/11/15 08:59:30;;;;;;;0.10;0.10;;;;;;;8.93;100.00;95956.06;4948505;28;20045;-80
2022/11/15 09:02:37;;;;;;;0.10;0.10;;;;;;;8.91;100.00;95954.72;4971102;28;20104;-78
2022/11/15 09:05:41;;;;;;;0.10;0.10;;;;;;;8.96;100.00;95953.97;4980684;28;20673;-80
2022/11/15 09:08:46;;;;;;;0.10;0.10;;;;;;;9.01;100.00;95957.50;4981703;28;20081;-77
2022/11/15 09:11:50;;;;;;;0.20;0.20;;;;;;;9.07;100.00;95945.81;4982015;28;20248;-78
2022/11/15 09:14:55;;;;;;;0.10;0.10;;;;;;;9.22;100.00;95947.84;4972754;28;20048;-77
2022/11/15 09:17:59;;;;;;;0.10;0.10;;;;;;;9.39;100.00;95948.53;4980268;28;20092;-77
2022/11/15 09:21:04;;;;;;;0.10;0.10;;;;;;;9.50;100.00;95946.78;4979824;28;20073;-77
2022/11/15 09:24:08;;;;;;;0.10;0.10;;;;;;;9.69;100.00;95961.38;4971581;28;20046;-79
2022/11/15 09:27:13;;;;;;;0.15;0.15;;;;;;;9.63;100.00;95953.56;4633927;28;10000257;-79
2022/11/15 09:30:17;;;;;;;0.10;0.10;;;;;;;9.62;100.00;95960.75;4983017;28;20230;-79
2022/11/15 09:33:22;;;;;;;0.10;0.10;;;;;;;9.61;100.00;95959.16;4979154;28;20860;-78
2022/11/15 09:36:26;;;;;;;0.10;0.10;;;;;;;9.66;100.00;95945.84;4980300;28;20057;-79
2022/11/15 09:39:31;;;;;;;0.10;0.10;;;;;;;9.69;100.00;95939.19;4979231;28;20587;-79
2022/11/15 09:42:47;;;;;;;0.10;0.10;;;;;;;9.83;100.00;95942.25;4980354;28;20096;-78
2022/11/15 09:46:13;;;;;;;0.10;0.10;;;;;;;9.73;100.00;95938.44;4981673;28;20049;-80
2022/11/15 09:49:33;;;;;;;0.10;0.10;;;;;;;9.49;100.00;95940.63;4981221;28;20121;-79
2022/11/15 09:52:38;;;;;;;0.10;0.10;;;;;;;9.57;100.00;95944.72;4984617;28;20046;-79
2022/11/15 09:55:40;;;;;;;0.10;0.10;;;;;;;9.61;100.00;95935.13;4982536;28;20506;-79
2022/11/15 09:58:36;;;;;;;0.10;0.10;;;;;;;9.67;100.00;95927.97;4982435;28;20070;-79
2022/11/15 10:01:49;;;;;;;0.10;0.10;;;;;;;9.96;100.00;95925.75;4979248;28;20250;-78
2022/11/15 10:04:37;;;;;;;0.10;0.10;;;;;;;9.80;100.00;95921.34;4980072;28;20057;-76
2022/11/15 10:07:44;;;;;;;0.10;0.10;;;;;;;9.97;100.00;95919.34;4968646;28;20046;-78
2022/11/15 10:10:39;;;;;;;0.10;0.10;;;;;;;9.95;100.00;95916.91;4983368;28;20046;-79
2022/11/15 10:13:29;;;;;;;0.10;0.10;;;;;;;10.12;100.00;95921.31;4981057;28;20487;-77
2022/11/15 10:16:55;;;;;;;0.10;0.10;;;;;;;10.38;100.00;95909.72;4983120;28;20038;-78
2022/11/15 10:20:05;;;;;;;0.10;0.10;;;;;;;10.09;100.00;95913.81;4983298;28;20210;-80
2022/11/15 10:22:54;;;;;;;0.10;0.10;;;;;;;10.24;100.00;95912.06;4980404;28;20304;-79
2022/11/15 10:25:40;;;;;;;0.10;0.10;;;;;;;10.71;100.00;95911.19;4984585;28;20092;-78
2022/11/15 10:28:28;;;;;;;0.10;0.10;;;;;;;10.94;100.00;95896.56;4982573;28;20046;-78
2022/11/15 10:31:28;;;;;;;0.10;0.10;;;;;;;11.71;100.00;95895.56;4983917;28;20042;-78
2022/11/15 10:34:23;;;;;;;0.10;0.10;;;;;;;13.34;100.00;95881.59;4980432;28;20518;-78
2022/11/15 10:37:08;;;;;;;0.10;0.10;;;;;;;11.89;100.00;95872.78;4980810;28;20561;-79
2022/11/15 10:40:20;;;;;;;0.10;0.10;;;;;;;11.34;100.00;95878.94;4982571;28;20639;-76
2022/11/15 10:43:08;;;;;;;0.10;0.10;;;;;;;11.11;100.00;95874.91;4980098;28;20137;-76
2022/11/15 10:45:54;;;;;;;0.10;0.10;;;;;;;10.90;100.00;95865.25;4981588;28;20050;-76
2022/11/15 10:48:40;;;;;;;0.10;0.10;;;;;;;11.06;100.00;95856.97;4981839;28;20290;-79
2022/11/15 10:51:28;;;;;;;0.10;0.10;;;;;;;10.94;100.00;95852.91;4985727;28;20054;-76
2022/11/15 10:54:35;;;;;;;0.10;0.10;;;;;;;10.76;100.00;95849.69;4979720;28;20042;-78
2022/11/15 10:57:28;;;;;;;0.10;0.10;;;;;;;11.24;100.00;95847.59;4636470;28;10000207;-79
2022/11/15 11:00:20;;;;;;;0.10;0.10;;;;;;;11.26;100.00;95837.41;4979299;28;20141;-76
2022/11/15 11:03:21;;;;;;;0.10;0.10;;;;;;;11.00;100.00;95841.16;4978230;28;20033;-78
2022/11/15 11:06:16;;;;;;;0.10;0.10;;;;;;;11.10;100.00;95833.13;4977525;28;20497;-77
2022/11/15 11:09:05;;;;;;;0.10;0.10;;;;;;;10.94;100.00;95834.97;4980215;28;20042;-77
2022/11/15 11:11:52;;;;;;;0.40;0.10;;;;;;;11.18;100.00;95827.25;4981324;28;20250;-78
2022/11/15 11:14:39;;;;;;;0.10;0.10;;;;;;;11.24;100.00;95828.06;4969372;28;20046;-79
2022/11/15 11:17:34;;;;;;;0.10;0.10;;;;;;;11.31;100.00;95815.22;4979546;28;20123;-77
2022/11/15 11:20:29;;;;;;;0.10;0.10;;;;;;;11.90;100.00;95811.94;4980981;28;20547;-79
2022/11/15 11:23:34;;;;;;;0.10;0.10;;;;;;;11.70;100.00;95802.03;4980702;28;20501;-78
2022/11/15 11:26:26;;;;;;;0.10;0.10;;;;;;;12.09;100.00;95802.22;4964491;28;20049;-77
2022/11/15 11:29:42;;;;;;;0.10;0.10;;;;;;;12.89;100.00;95794.03;4978132;28;20416;-78
2022/11/15 11:33:08;;;;;;;0.10;0.10;;;;;;;13.01;100.00;95802.56;4628643;28;10001478;-77
2022/11/15 11:36:03;;;;;;;0.10;0.10;;;;;;;12.86;100.00;95794.59;4978797;28;20387;-76
2022/11/15 11:39:16;;;;;;;0.10;0.10;;;;;;;12.38;100.00;95788.19;4972242;28;20133;-79
2022/11/15 11:42:49;;;;;;;0.20;0.20;;;;;;;13.18;100.00;95791.41;4981388;28;20049;-79
2022/11/15 11:45:56;;;;;;;0.10;0.10;;;;;;;13.37;100.00;95778.91;4982696;28;20038;-76
2022/11/15 11:49:10;;;;;;;0.10;0.10;;;;;;;13.46;100.00;95783.69;4979167;28;20042;-79
2022/11/15 11:52:07;;;;;;;0.20;0.20;;;;;;;16.10;100.00;95777.28;4978294;28;20042;-79
2022/11/15 11:55:13;;;;;;;0.17;0.17;;;;;;;16.93;100.00;95769.91;4981162;28;20042;-77
2022/11/15 11:58:26;;;;;;;0.28;0.28;;;;;;;17.63;99.11;95768.50;4970722;28;20288;-78
2022/11/15 12:01:22;;;;;;;;;;;;;;;17.37;100.00;95757.53;4984162;28;20042;-79
2022/11/15 12:04:19;;;;;;;0.10;0.10;;;;;;;17.80;93.50;95754.28;4969207;28;19921;-76
2022/11/15 12:07:15;;;;;;;0.13;0.13;;;;;;;17.26;96.69;95748.84;4981703;28;20042;-77
2022/11/15 12:10:14;;;;;;;0.10;0.10;;;;;;;18.05;90.84;95742.78;4981674;28;20708;-77
2022/11/15 12:13:13;;;;;;;0.10;0.10;;;;;;;16.26;100.00;95737.28;4976397;28;20041;-74
2022/11/15 12:16:02;;;;;;;0.13;0.10;;;;;;;16.35;100.00;95735.50;4980797;28;20494;-76
2022/11/15 12:18:54;;;;;;;0.20;0.20;;;;;;;16.48;100.00;95746.56;4980375;28;20042;-79
2022/11/15 12:22:02;;;;;;;0.20;0.20;;;;;;;18.96;87.07;95735.78;4973524;28;20120;-78
2022/11/15 12:25:00;;;;;;;0.20;0.20;;;;;;;16.76;97.56;95745.44;4972409;28;20042;-77
2022/11/15 12:27:55;;;;;;;0.10;0.10;;;;;;;15.66;100.00;95744.69;4979383;28;20089;-78
2022/11/15 12:30:50;;;;;;;0.10;0.10;;;;;;;15.35;100.00;95749.81;4984304;28;20252;-78
2022/11/15 12:33:48;;;;;;;0.10;0.10;;;;;;;14.47;100.00;95753.00;4981685;28;20543;-75
2022/11/15 12:36:44;;;;;;;0.10;0.10;;;;;;;13.55;100.00;95747.06;4980745;28;20038;-75
2022/11/15 12:40:03;;;;;;;0.10;0.10;;;;;;;13.03;100.00;95729.75;4980363;28;20041;-77
2022/11/15 12:43:15;;;;;;;0.10;0.10;;;;;;;13.23;100.00;95736.88;4979380;28;20149;-76
2022/11/15 12:46:05;;;;;;;0.15;0.15;;;;;;;12.87;100.00;95731.78;4983067;28;20318;-76
2022/11/15 12:48:54;;;;;;;0.10;0.10;;;;;;;12.78;100.00;95730.78;4979390;28;20587;-77
2022/11/15 12:51:43;;;;;;;0.20;0.17;;;;;;;12.76;100.00;95723.00;4981265;28;20070;-78
2022/11/15 12:54:32;;;;;;;0.10;0.10;;;;;;;12.56;100.00;95720.44;4983572;28;20819;-77
2022/11/15 12:57:33;;;;;;;0.10;0.10;;;;;;;12.68;100.00;95712.03;4962772;28;20585;-77
2022/11/15 13:00:19;;;;;;;0.10;0.10;;;;;;;12.85;100.00;95707.09;4980039;28;20089;-75
2022/11/15 13:03:20;;;;;;;0.10;0.10;;;;;;;12.34;100.00;95701.25;4966092;28;20814;-75
2022/11/15 13:06:08;;;;;;;0.10;0.10;;;;;;;12.25;100.00;95690.31;4966950;28;20271;-75
2022/11/15 13:08:53;;;;;;;0.10;0.10;;;;;;;12.23;100.00;95690.59;4967402;28;20045;-76
2022/11/15 13:11:48;;;;;;;0.10;0.10;;;;;;;11.96;100.00;95684.84;4983548;28;20320;-77
2022/11/15 13:14:39;;;;;;;0.10;0.10;;;;;;;11.88;100.00;95686.22;4975687;28;20042;-77
2022/11/15 13:17:26;;;;;;;0.10;0.10;;;;;;;11.62;100.00;95674.75;4983752;28;20115;-75
2022/11/15 13:20:15;;;;;;;0.00;0.00;;;;;;;11.35;100.00;95675.09;4987053;28;20038;-79
2022/11/15 13:23:15;;;;;;;0.10;0.10;;;;;;;11.45;100.00;95655.53;4984363;28;20109;-79
2022/11/15 13:26:12;;;;;;;0.10;0.10;;;;;;;11.44;100.00;95673.50;4984904;28;20244;-77
2022/11/15 13:29:00;;;;;;;0.10;0.10;;;;;;;11.38;100.00;95668.41;4983388;28;20061;-76
2022/11/15 13:31:47;;;;;;;0.10;0.10;;;;;;;11.26;100.00;95671.38;4974667;28;20523;-78
2022/11/15 13:34:34;;;;;;;0.10;0.10;;;;;;;11.14;100.00;95662.84;4982440;28;20436;-77
2022/11/15 13:37:20;;;;;;;0.00;0.00;;;;;;;11.17;100.00;95662.28;4983834;28;20597;-76
2022/11/15 13:40:35;;;;;;;0.10;0.10;;;;;;;11.05;100.00;95659.09;4983246;28;20314;-79
2022/11/15 13:43:21;;;;;;;0.30;0.20;;;;;;;11.29;100.00;95648.63;4982736;28;20292;-79
2022/11/15 13:46:17;;;;;;;0.10;0.10;;;;;;;11.27;100.00;95640.84;4633132;28;9999811;-78
2022/11/15 13:49:07;;;;;;;0.10;0.10;;;;;;;11.16;100.00;95634.72;4983195;28;20482;-78
2022/11/15 13:51:54;;;;;;;0.10;0.10;;;;;;;10.91;100.00;95621.41;4980732;28;20046;-79
2022/11/15 13:54:55;;;;;;;0.10;0.10;;;;;;;10.93;100.00;95626.47;4966854;28;20478;-78
2022/11/15 13:57:58;;;;;;;0.10;0.10;;;;;;;10.65;100.00;95642.00;4981255;28;20037;-78
2022/11/15 14:00:45;;;;;;;0.10;0.10;;;;;;;10.54;100.00;95635.06;4957958;28;20402;-78
2022/11/15 14:03:36;;;;;;;0.10;0.10;;;;;;;10.40;100.00;95634.00;4981953;28;20050;-78
2022/11/15 14:06:24;;;;;;;0.10;0.10;;;;;;;10.29;100.00;95617.94;4982879;28;20050;-78
2022/11/15 14:09:10;;;;;;;0.10;0.10;;;;;;;10.36;100.00;95630.25;4982999;28;20057;-78
2022/11/15 14:11:56;;;;;;;0.10;0.10;;;;;;;10.33;100.00;95618.22;4983548;28;20564;-78
2022/11/15 14:14:46;;;;;;;0.10;0.10;;;;;;;10.28;100.00;95608.31;4980858;28;20072;-79
2022/11/15 14:17:35;;;;;;;0.10;0.10;;;;;;;10.33;100.00;95596.81;4976016;28;20108;-79
2022/11/15 14:20:30;;;;;;;0.10;0.10;;;;;;;10.43;100.00;95604.06;4981511;28;20799;-79
2022/11/15 14:23:29;;;;;;;0.10;0.10;;;;;;;10.31;100.00;95597.09;4638752;28;10001352;-77
2022/11/15 14:26:34;;;;;;;0.10;0.10;;;;;;;10.32;100.00;95597.88;4982263;28;20064;-76
2022/11/15 14:29:27;;;;;;;0.10;0.10;;;;;;;10.17;100.00;95598.66;4984640;28;20499;-75
2022/11/15 14:32:16;;;;;;;0.10;0.10;;;;;;;10.09;100.00;95593.84;4984776;28;20324;-76